createdAt,value
2016-02-19T00:00:31.922Z,-0.81
2016-02-19T00:01:31.908Z,-0.78
2016-02-19T00:02:31.911Z,-0.85
2016-02-19T00:03:31.914Z,-0.8
2016-02-19T00:04:31.901Z,-0.75
2016-02-19T00:05:31.904Z,-0.74
2016-02-19T00:06:31.922Z,-0.81
2016-02-19T00:07:31.909Z,-0.84
2016-02-19T00:08:31.913Z,-0.84
2016-02-19T00:09:31.915Z,-0.78
2016-02-19T00:10:31.902Z,-0.75
2016-02-19T00:11:31.904Z,-0.82
2016-02-19T00:12:31.907Z,-0.94
2016-02-19T00:13:31.894Z,-0.85
2016-02-19T00:14:31.912Z,-0.91
2016-02-19T00:15:31.884Z,-0.87
2016-02-19T00:16:31.901Z,-0.93
2016-02-19T00:17:31.889Z,-0.91
2016-02-19T00:18:31.892Z,-1.03
2016-02-19T00:19:31.895Z,-1.06
2016-02-19T00:20:31.897Z,-1.06
2016-02-19T00:21:31.900Z,-1.07
2016-02-19T00:22:31.872Z,-1.06
2016-02-19T00:23:31.874Z,-1.07
2016-02-19T00:24:31.892Z,-1.01
2016-02-19T00:25:31.880Z,-1.03
2016-02-19T00:26:31.897Z,-1.09
2016-02-19T00:27:31.901Z,-1.06
2016-02-19T00:28:31.903Z,-1.03
2016-02-19T00:29:31.890Z,-1.03
2016-02-19T00:30:31.896Z,-0.99
2016-02-19T00:31:31.728Z,-1.07
2016-02-19T00:32:31.887Z,-1.04
2016-02-19T00:33:31.890Z,-1.03
2016-02-19T00:34:31.876Z,-1.12
2016-02-19T00:35:31.878Z,-1.14
2016-02-19T00:36:31.867Z,-1.12
2016-02-19T00:37:31.869Z,-1.11
2016-02-19T00:38:31.871Z,-1.21
2016-02-19T00:39:31.875Z,-1.18
2016-02-19T00:40:31.877Z,-1.19
2016-02-19T00:41:31.880Z,-1.15
2016-02-19T00:42:31.883Z,-1.15
2016-02-19T00:43:31.869Z,-1.21
2016-02-19T00:44:31.872Z,-1.19
2016-02-19T00:45:31.875Z,-1.25
2016-02-19T00:46:31.861Z,-1.21
2016-02-19T00:47:31.864Z,-1.22
2016-02-19T00:48:31.866Z,-1.25
2016-02-19T00:49:31.855Z,-1.24
2016-02-19T00:50:31.857Z,-1.14
2016-02-19T00:51:31.860Z,-1.21
2016-02-19T00:52:31.847Z,-1.15
2016-02-19T00:53:31.865Z,-1.14
2016-02-19T00:54:31.868Z,-1.11
2016-02-19T00:55:31.871Z,-1.03
2016-02-19T00:56:31.857Z,-1.04
2016-02-19T00:57:31.860Z,-0.93
2016-02-19T00:58:31.863Z,-0.96
2016-02-19T00:59:31.865Z,-0.94
2016-02-19T01:00:31.852Z,-0.85
2016-02-19T01:01:31.949Z,-0.84
2016-02-19T01:02:31.842Z,-0.77
2016-02-19T01:03:31.845Z,-0.63
2016-02-19T01:04:31.692Z,-0.63
2016-02-19T01:05:31.859Z,-0.54
2016-02-19T01:06:31.846Z,-0.48
2016-02-19T01:07:31.833Z,-0.48
2016-02-19T01:08:31.835Z,-0.48
2016-02-19T01:09:31.838Z,-0.35
2016-02-19T01:10:31.841Z,-0.31
2016-02-19T01:11:31.843Z,-0.41
2016-02-19T01:12:31.831Z,-0.31
2016-02-19T01:13:31.834Z,-0.36
2016-02-19T01:14:31.837Z,-0.46
2016-02-19T01:15:31.839Z,-0.51
2016-02-19T01:16:31.826Z,-0.46
2016-02-19T01:17:31.829Z,-0.44
2016-02-19T01:18:31.831Z,-0.48
2016-02-19T01:19:31.834Z,-0.51
2016-02-19T01:20:31.820Z,-0.57
2016-02-19T01:21:31.823Z,-0.56
2016-02-19T01:22:31.827Z,-0.6
2016-02-19T01:23:31.814Z,-0.59
2016-02-19T01:24:31.816Z,-0.51
2016-02-19T01:25:31.820Z,-0.57
2016-02-19T01:26:31.822Z,-0.44
2016-02-19T01:27:31.809Z,-0.45
2016-02-19T01:28:31.811Z,-0.53
2016-02-19T01:29:31.814Z,-0.49
2016-02-19T01:30:31.817Z,-0.39
2016-02-19T01:31:31.805Z,-0.33
2016-02-19T01:32:31.808Z,-0.36
2016-02-19T01:33:31.825Z,-0.36
2016-02-19T01:34:31.812Z,-0.26
2016-02-19T01:35:31.799Z,-0.2
2016-02-19T01:36:31.802Z,-0.07
2016-02-19T01:37:31.804Z,-0.06
2016-02-19T01:38:31.807Z,0.02
2016-02-19T01:39:31.794Z,-0.02
2016-02-19T01:40:31.796Z,0.11
2016-02-19T01:41:31.800Z,0.24
2016-02-19T01:42:31.787Z,0.15
2016-02-19T01:43:31.820Z,0.18
2016-02-19T01:44:31.793Z,0.31
2016-02-19T01:45:31.795Z,0.39
2016-02-19T01:46:31.813Z,0.29
2016-02-19T01:47:31.801Z,0.42
2016-02-19T01:48:31.834Z,0.42
2016-02-19T01:49:31.790Z,0.52
2016-02-19T01:50:31.793Z,0.59
2016-02-19T01:51:31.842Z,0.49
2016-02-19T01:52:31.782Z,0.56
2016-02-19T01:53:31.801Z,0.68
2016-02-19T01:54:31.773Z,0.64
2016-02-19T01:55:31.790Z,0.63
2016-02-19T01:56:31.793Z,0.67
2016-02-19T01:57:31.780Z,0.77
2016-02-19T01:58:31.767Z,0.71
2016-02-19T01:59:31.785Z,0.77
2016-02-19T02:00:31.788Z,0.78
2016-02-19T02:01:31.775Z,0.85
2016-02-19T02:02:31.777Z,0.89
2016-02-19T02:03:31.780Z,0.94
2016-02-19T02:04:31.611Z,1.02
2016-02-19T02:05:31.786Z,0.99
2016-02-19T02:06:31.757Z,1
2016-02-19T02:07:31.760Z,1.04
2016-02-19T02:08:31.763Z,1.04
2016-02-19T02:09:31.766Z,1.02
2016-02-19T02:10:31.768Z,1.12
2016-02-19T02:11:31.771Z,1.09
2016-02-19T02:12:31.757Z,1.12
2016-02-19T02:13:31.761Z,1.07
2016-02-19T02:14:31.779Z,1.12
2016-02-19T02:15:31.750Z,1.03
2016-02-19T02:16:31.769Z,1.1
2016-02-19T02:17:31.756Z,1.12
2016-02-19T02:18:31.759Z,1.18
2016-02-19T02:19:31.762Z,1.12
2016-02-19T02:20:31.748Z,1.24
2016-02-19T02:21:31.767Z,1.21
2016-02-19T02:22:31.754Z,1.2
2016-02-19T02:23:31.741Z,1.2
2016-02-19T02:24:31.759Z,1.2
2016-02-19T02:25:31.745Z,1.22
2016-02-19T02:26:31.748Z,1.3
2016-02-19T02:27:31.767Z,1.22
2016-02-19T02:28:31.739Z,1.16
2016-02-19T02:29:31.757Z,1.21
2016-02-19T02:30:31.744Z,1.22
2016-02-19T02:31:31.746Z,1.24
2016-02-19T02:32:31.734Z,1.13
2016-02-19T02:33:31.752Z,1.12
2016-02-19T02:34:31.738Z,1.24
2016-02-19T02:35:31.742Z,1.12
2016-02-19T02:36:31.729Z,1.12
2016-02-19T02:37:31.763Z,1.16
2016-02-19T02:38:31.734Z,1.14
2016-02-19T02:39:31.737Z,1.18
2016-02-19T02:40:31.740Z,1.14
2016-02-19T02:41:31.757Z,1.16
2016-02-19T02:42:31.730Z,1.2
2016-02-19T02:43:31.710Z,1.18
2016-02-19T02:44:31.583Z,1.21
2016-02-19T02:45:31.734Z,1.22
2016-02-19T02:46:32.031Z,1.22
2016-02-19T02:47:31.721Z,1.16
2016-02-19T02:48:31.817Z,1.22
2016-02-19T02:49:31.726Z,1.32
2016-02-19T02:50:31.729Z,1.34
2016-02-19T02:51:31.732Z,1.32
2016-02-19T02:52:31.719Z,1.42
2016-02-19T02:53:31.722Z,1.45
2016-02-19T02:54:31.740Z,1.43
2016-02-19T02:55:31.705Z,1.48
2016-02-19T02:56:31.723Z,1.6
2016-02-19T02:57:31.710Z,1.58
2016-02-19T02:58:31.728Z,1.64
2016-02-19T02:59:31.715Z,1.57
2016-02-19T03:00:31.717Z,1.64
2016-02-19T03:01:31.721Z,1.57
2016-02-19T03:02:31.723Z,1.58
2016-02-19T03:03:31.711Z,1.66
2016-02-19T03:04:31.713Z,1.61
2016-02-19T03:05:31.716Z,1.74
2016-02-19T03:06:31.703Z,1.67
2016-02-19T03:07:31.706Z,1.6
2016-02-19T03:08:31.709Z,1.68
2016-02-19T03:09:31.696Z,1.7
2016-02-19T03:10:31.713Z,1.75
2016-02-19T03:11:31.701Z,1.68
2016-02-19T03:12:31.704Z,1.78
2016-02-19T03:13:31.706Z,1.81
2016-02-19T03:14:31.709Z,1.84
2016-02-19T03:15:31.696Z,1.84
2016-02-19T03:16:31.698Z,1.86
2016-02-19T03:17:31.702Z,1.84
2016-02-19T03:18:31.704Z,1.86
2016-02-19T03:19:31.691Z,1.93
2016-02-19T03:20:31.709Z,1.95
2016-02-19T03:21:31.696Z,2.04
2016-02-19T03:22:31.684Z,2.04
2016-02-19T03:23:31.686Z,2.01
2016-02-19T03:24:31.689Z,2.08
2016-02-19T03:25:31.707Z,2.08
2016-02-19T03:26:31.694Z,2.04
2016-02-19T03:27:31.698Z,2.01
2016-02-19T03:28:31.684Z,2.1
2016-02-19T03:29:31.686Z,2.04
2016-02-19T03:30:31.689Z,2.08
2016-02-19T03:31:31.676Z,2.03
2016-02-19T03:32:31.695Z,2.03
2016-02-19T03:33:31.681Z,2.1
2016-02-19T03:34:31.684Z,2.04
2016-02-19T03:35:31.687Z,2.03
2016-02-19T03:36:31.689Z,2.08
2016-02-19T03:37:31.678Z,2.16
2016-02-19T03:38:31.680Z,2.15
2016-02-19T03:39:31.683Z,2.23
2016-02-19T03:40:31.685Z,2.18
2016-02-19T03:41:31.672Z,2.22
2016-02-19T03:42:31.674Z,2.18
2016-02-19T03:43:31.677Z,2.36
2016-02-19T03:44:31.680Z,2.32
2016-02-19T03:45:31.667Z,2.26
2016-02-19T03:46:31.717Z,2.3
2016-02-19T03:47:31.673Z,2.37
2016-02-19T03:48:31.676Z,2.36
2016-02-19T03:49:31.678Z,2.4
2016-02-19T03:50:31.665Z,2.34
2016-02-19T03:51:31.668Z,2.37
2016-02-19T03:52:31.686Z,2.32
2016-02-19T03:53:31.673Z,2.3
2016-02-19T03:54:31.676Z,2.34
2016-02-19T03:55:31.678Z,2.37
2016-02-19T03:56:31.666Z,2.41
2016-02-19T03:57:31.668Z,2.51
2016-02-19T03:58:31.671Z,2.44
2016-02-19T03:59:31.658Z,2.51
2016-02-19T04:00:31.661Z,2.51
2016-02-19T04:01:31.664Z,2.47
2016-02-19T04:02:31.650Z,2.58
2016-02-19T04:03:31.669Z,2.54
2016-02-19T04:04:31.656Z,2.58
2016-02-19T04:05:31.658Z,2.61
2016-02-19T04:06:31.677Z,2.5
2016-02-19T04:07:31.664Z,2.59
2016-02-19T04:08:31.666Z,2.61
2016-02-19T04:09:31.653Z,2.59
2016-02-19T04:10:31.656Z,2.61
2016-02-19T04:11:31.643Z,2.58
2016-02-19T04:12:31.646Z,2.59
2016-02-19T04:13:31.664Z,2.69
2016-02-19T04:14:31.652Z,2.64
2016-02-19T04:15:31.659Z,2.68
2016-02-19T04:16:31.646Z,2.64
2016-02-19T04:17:31.649Z,2.69
2016-02-19T04:18:31.651Z,2.72
2016-02-19T04:19:31.638Z,2.7
2016-02-19T04:20:31.641Z,2.69
2016-02-19T04:21:31.643Z,2.69
2016-02-19T04:22:31.646Z,2.79
2016-02-19T04:23:31.649Z,2.7
2016-02-19T04:24:31.652Z,2.73
2016-02-19T04:25:31.639Z,2.72
2016-02-19T04:26:31.657Z,2.79
2016-02-19T04:27:31.644Z,2.82
2016-02-19T04:28:31.631Z,2.68
2016-02-19T04:29:31.649Z,2.79
2016-02-19T04:30:31.653Z,2.69
2016-02-19T04:31:31.639Z,2.59
2016-02-19T04:32:31.642Z,2.69
2016-02-19T04:33:31.630Z,2.75
2016-02-19T04:34:31.647Z,2.73
2016-02-19T04:35:31.635Z,2.69
2016-02-19T04:36:31.653Z,2.69
2016-02-19T04:37:31.624Z,2.69
2016-02-19T04:38:31.674Z,2.79
2016-02-19T04:39:31.629Z,2.77
2016-02-19T04:40:31.649Z,2.77
2016-02-19T04:41:31.651Z,2.83
2016-02-19T04:42:31.638Z,2.64
2016-02-19T04:43:31.641Z,2.82
2016-02-19T04:44:31.643Z,2.76
2016-02-19T04:45:31.630Z,2.79
2016-02-19T04:46:31.665Z,2.76
2016-02-19T04:47:31.635Z,2.82
2016-02-19T04:48:31.623Z,2.83
2016-02-19T04:49:31.625Z,2.88
2016-02-19T04:50:31.643Z,2.85
2016-02-19T04:51:31.615Z,2.85
2016-02-19T04:52:31.618Z,2.85
2016-02-19T04:53:31.637Z,2.79
2016-02-19T04:54:31.623Z,2.82
2016-02-19T04:55:31.625Z,2.87
2016-02-19T04:56:31.613Z,2.83
2016-02-19T04:57:31.631Z,2.88
2016-02-19T04:58:31.618Z,2.83
2016-02-19T04:59:31.605Z,2.88
2016-02-19T05:00:31.623Z,2.85
2016-02-19T05:01:31.611Z,2.93
2016-02-19T05:02:31.613Z,2.83
2016-02-19T05:03:31.617Z,2.98
2016-02-19T05:04:31.619Z,2.87
2016-02-19T05:05:31.621Z,2.97
2016-02-19T05:06:31.609Z,2.88
2016-02-19T05:07:31.627Z,2.97
2016-02-19T05:08:31.614Z,3
2016-02-19T05:09:31.632Z,3.03
2016-02-19T05:10:31.619Z,2.98
2016-02-19T05:11:31.607Z,3
2016-02-19T05:12:31.640Z,3.05
2016-02-19T05:13:31.613Z,2.97
2016-02-19T05:14:31.599Z,3.03
2016-02-19T05:15:31.617Z,3.05
2016-02-19T05:16:31.605Z,3.16
2016-02-19T05:17:31.623Z,3.11
2016-02-19T05:18:31.626Z,3.06
2016-02-19T05:19:31.628Z,3.03
2016-02-19T05:20:31.615Z,3.13
2016-02-19T05:21:31.587Z,3.13
2016-02-19T05:22:31.574Z,3.15
2016-02-19T05:23:31.577Z,3.13
2016-02-19T05:24:31.548Z,3.15
2016-02-19T05:25:31.519Z,3.06
2016-02-19T05:26:31.516Z,3.15
2016-02-19T05:27:31.356Z,3.12
2016-02-19T05:28:31.493Z,3.15
2016-02-19T05:29:31.491Z,3.22
2016-02-19T05:30:31.488Z,3.22
2016-02-19T05:31:31.504Z,3.15
2016-02-19T05:32:31.489Z,3.16
2016-02-19T05:33:31.506Z,3.15
2016-02-19T05:34:31.475Z,3.22
2016-02-19T05:35:31.475Z,3.21
2016-02-19T05:36:31.477Z,3.11
2016-02-19T05:37:31.464Z,3.22
2016-02-19T05:38:31.481Z,3.16
2016-02-19T05:39:31.483Z,3.21
2016-02-19T05:40:31.469Z,3.21
2016-02-19T05:41:31.473Z,3.31
2016-02-19T05:42:31.459Z,3.29
2016-02-19T05:43:31.462Z,3.27
2016-02-19T05:44:31.481Z,3.16
2016-02-19T05:45:31.483Z,3.26
2016-02-19T05:46:31.470Z,3.36
2016-02-19T05:47:31.489Z,3.36
2016-02-19T05:48:31.460Z,3.26
2016-02-19T05:49:31.463Z,3.27
2016-02-19T05:50:31.465Z,3.43
2016-02-19T05:51:31.469Z,3.22
2016-02-19T05:52:31.455Z,3.31
2016-02-19T05:53:31.474Z,3.36
2016-02-19T05:54:31.477Z,3.34
2016-02-19T05:55:31.463Z,3.4
2016-02-19T05:56:31.466Z,3.33
2016-02-19T05:57:31.499Z,3.27
2016-02-19T05:58:31.456Z,3.4
2016-02-19T05:59:31.474Z,3.37
2016-02-19T06:00:31.476Z,3.33
2016-02-19T06:01:31.463Z,3.34
2016-02-19T06:02:31.466Z,3.36
2016-02-19T06:03:31.297Z,3.31
2016-02-19T06:04:31.457Z,3.41
2016-02-19T06:05:31.318Z,3.37
2016-02-19T06:06:31.453Z,3.34
2016-02-19T06:07:31.471Z,3.36
2016-02-19T06:08:31.458Z,3.34
2016-02-19T06:09:31.476Z,3.31
2016-02-19T06:10:31.463Z,3.37
2016-02-19T06:11:31.451Z,3.3
2016-02-19T06:12:31.453Z,3.4
2016-02-19T06:13:31.456Z,3.27
2016-02-19T06:14:31.443Z,3.26
2016-02-19T06:15:31.461Z,3.31
2016-02-19T06:16:31.464Z,3.26
2016-02-19T06:17:31.451Z,3.43
2016-02-19T06:18:31.455Z,3.45
2016-02-19T06:19:31.457Z,3.27
2016-02-19T06:20:31.459Z,3.45
2016-02-19T06:21:31.446Z,3.3
2016-02-19T06:22:31.465Z,3.43
2016-02-19T06:23:31.451Z,3.24
2016-02-19T06:24:31.454Z,3.27
2016-02-19T06:25:31.457Z,3.3
2016-02-19T06:26:31.460Z,3.33
2016-02-19T06:27:31.462Z,3.37
2016-02-19T06:28:31.449Z,3.34
2016-02-19T06:29:31.452Z,3.31
2016-02-19T06:30:31.439Z,3.33
2016-02-19T06:31:31.457Z,3.34
2016-02-19T06:32:31.445Z,3.33
2016-02-19T06:33:31.447Z,3.37
2016-02-19T06:34:31.465Z,3.31
2016-02-19T06:35:31.452Z,3.37
2016-02-19T06:36:31.440Z,3.4
2016-02-19T06:37:31.442Z,3.33
2016-02-19T06:38:31.445Z,3.34
2016-02-19T06:39:31.448Z,3.31
2016-02-19T06:40:31.435Z,3.29
2016-02-19T06:41:31.437Z,3.34
2016-02-19T06:42:31.440Z,3.4
2016-02-19T06:43:31.442Z,3.3
2016-02-19T06:46:06.763Z,3.31
2016-02-19T06:47:06.783Z,3.36
2016-02-19T06:48:06.800Z,3.36
2016-02-19T06:49:06.772Z,3.37
2016-02-19T06:50:06.790Z,3.37
2016-02-19T06:51:06.761Z,3.45
2016-02-19T06:52:06.780Z,3.4
2016-02-19T06:53:06.766Z,3.45
2016-02-19T06:54:06.770Z,3.49
2016-02-19T06:55:06.772Z,3.48
2016-02-19T06:56:06.760Z,3.48
2016-02-19T06:57:06.777Z,3.48
2016-02-19T06:58:06.765Z,3.41
2016-02-19T06:59:06.752Z,3.53
2016-02-19T07:00:06.785Z,3.52
2016-02-19T07:01:06.773Z,3.48
2016-02-19T07:02:06.760Z,3.4
2016-02-19T07:03:06.793Z,3.34
2016-02-19T07:04:06.765Z,3.53
2016-02-19T07:05:06.789Z,3.33
2016-02-19T07:06:06.807Z,3.43
2016-02-19T07:07:06.778Z,3.52
2016-02-19T07:08:06.781Z,3.46
2016-02-19T07:09:06.753Z,3.43
2016-02-19T07:10:06.770Z,3.5
2016-02-19T07:11:06.773Z,3.49
2016-02-19T07:12:06.761Z,3.59
2016-02-19T07:13:06.763Z,3.55
2016-02-19T07:14:06.750Z,3.58
2016-02-19T07:15:06.752Z,3.61
2016-02-19T07:16:06.787Z,3.67
2016-02-19T07:17:06.758Z,3.61
2016-02-19T07:18:06.760Z,3.63
2016-02-19T07:19:06.763Z,3.59
2016-02-19T07:20:06.766Z,3.74
2016-02-19T07:21:06.769Z,3.76
2016-02-19T07:22:06.772Z,3.77
2016-02-19T07:23:06.791Z,3.77
2016-02-19T07:24:06.590Z,3.86
2016-02-19T07:25:06.748Z,3.81
2016-02-19T07:26:06.783Z,3.85
2016-02-19T07:27:06.754Z,3.82
2016-02-19T07:28:06.757Z,3.78
2016-02-19T07:29:06.743Z,3.88
2016-02-19T07:30:06.762Z,3.91
2016-02-19T07:31:06.749Z,3.96
2016-02-19T07:32:06.751Z,4
2016-02-19T07:33:06.771Z,3.95
2016-02-19T07:34:06.757Z,3.99
2016-02-19T07:35:06.759Z,4.06
2016-02-19T07:36:06.747Z,4.07
2016-02-19T07:37:06.734Z,4.09
2016-02-19T07:38:06.753Z,4.12
2016-02-19T07:39:06.739Z,4.09
2016-02-19T07:40:06.758Z,4.09
2016-02-19T07:41:06.745Z,4.12
2016-02-19T07:42:06.747Z,4.2
2016-02-19T07:43:06.766Z,4.27
2016-02-19T07:44:06.737Z,4.27
2016-02-19T07:45:06.755Z,4.34
2016-02-19T07:46:06.742Z,4.36
2016-02-19T07:47:06.745Z,4.38
2016-02-19T07:48:06.748Z,4.36
2016-02-19T07:49:06.735Z,4.39
2016-02-19T07:50:06.752Z,4.43
2016-02-19T07:51:06.741Z,4.42
2016-02-19T07:52:06.743Z,4.4
2016-02-19T07:53:06.746Z,4.49
2016-02-19T07:54:06.749Z,4.52
2016-02-19T07:55:06.751Z,4.48
2016-02-19T07:56:06.582Z,4.49
2016-02-19T07:57:06.804Z,4.34
2016-02-19T07:58:06.760Z,4.39
2016-02-19T07:59:06.746Z,4.42
2016-02-19T08:00:06.733Z,4.39
2016-02-19T08:01:06.735Z,4.39
2016-02-19T08:02:06.754Z,4.48
2016-02-19T08:03:06.741Z,4.48
2016-02-19T08:04:06.728Z,4.46
2016-02-19T08:05:06.752Z,4.46
2016-02-19T08:06:06.739Z,4.5
2016-02-19T08:07:06.742Z,4.42
2016-02-19T08:08:06.744Z,4.53
2016-02-19T08:09:06.747Z,4.48
2016-02-19T08:10:06.764Z,4.5
2016-02-19T08:11:06.736Z,4.46
2016-02-19T08:12:06.739Z,4.6
2016-02-19T08:13:06.789Z,4.6
2016-02-19T08:14:06.744Z,4.53
2016-02-19T08:15:06.763Z,4.58
2016-02-19T08:16:06.750Z,4.6
2016-02-19T08:17:06.737Z,4.64
2016-02-19T08:18:06.755Z,4.66
2016-02-19T08:19:06.726Z,4.71
2016-02-19T08:20:06.745Z,4.74
2016-02-19T08:21:06.732Z,4.66
2016-02-19T08:22:06.750Z,4.71
2016-02-19T08:23:06.738Z,4.7
2016-02-19T08:24:06.740Z,4.71
2016-02-19T08:25:06.743Z,4.75
2016-02-19T08:26:06.730Z,4.71
2016-02-19T08:27:06.748Z,4.7
2016-02-19T08:28:06.735Z,4.67
2016-02-19T08:29:06.737Z,4.71
2016-02-19T08:30:06.741Z,4.82
2016-02-19T08:31:06.743Z,4.7
2016-02-19T08:32:06.746Z,4.7
2016-02-19T08:33:06.734Z,4.82
2016-02-19T08:34:06.736Z,4.74
2016-02-19T08:35:06.739Z,4.83
2016-02-19T08:36:06.726Z,4.76
2016-02-19T08:37:06.745Z,4.78
2016-02-19T08:38:06.731Z,4.78
2016-02-19T08:39:06.733Z,4.83
2016-02-19T08:40:06.736Z,4.82
2016-02-19T08:41:06.723Z,4.83
2016-02-19T08:42:06.741Z,4.95
2016-02-19T08:43:06.729Z,5.01
2016-02-19T08:44:06.731Z,5.04
2016-02-19T08:45:06.734Z,5.13
2016-02-19T08:46:06.721Z,5.18
2016-02-19T08:47:06.755Z,5.28
2016-02-19T08:48:06.727Z,5.34
2016-02-19T08:49:06.730Z,5.38
2016-02-19T08:50:06.747Z,5.47
2016-02-19T08:51:06.719Z,5.58
2016-02-19T08:52:06.721Z,5.55
2016-02-19T08:53:06.741Z,5.58
2016-02-19T08:54:06.743Z,5.52
2016-02-19T08:55:06.746Z,5.36
2016-02-19T08:56:06.716Z,5.52
2016-02-19T08:57:06.735Z,5.38
2016-02-19T08:58:06.738Z,5.47
2016-02-19T08:59:06.724Z,5.41
2016-02-19T09:00:06.727Z,5.38
2016-02-19T09:01:06.715Z,5.34
2016-02-19T09:02:06.732Z,5.31
2016-02-19T09:03:06.720Z,5.37
2016-02-19T09:04:06.723Z,5.22
2016-02-19T09:05:06.726Z,5.2
2016-02-19T09:06:06.712Z,5.23
2016-02-19T09:07:06.731Z,5.07
2016-02-19T09:08:06.734Z,5.07
2016-02-19T09:09:06.720Z,5.01
2016-02-19T09:10:06.723Z,5.01
2016-02-19T09:11:06.726Z,5
2016-02-19T09:12:06.729Z,5.02
2016-02-19T09:13:06.731Z,4.97
2016-02-19T09:14:06.734Z,5.02
2016-02-19T09:15:06.721Z,5.07
2016-02-19T09:16:06.724Z,5.05
2016-02-19T09:17:06.726Z,5.02
2016-02-19T09:18:06.714Z,5.02
2016-02-19T09:19:06.732Z,5.12
2016-02-19T09:20:06.734Z,5.08
2016-02-19T09:21:06.737Z,5.12
2016-02-19T09:22:06.724Z,5.07
2016-02-19T09:23:06.727Z,5.13
2016-02-19T09:24:06.730Z,5.19
2016-02-19T09:25:06.716Z,5.19
2016-02-19T09:26:06.719Z,5.2
2016-02-19T09:27:06.721Z,5.16
2016-02-19T09:28:06.725Z,5.28
2016-02-19T09:29:06.727Z,5.26
2016-02-19T09:30:06.729Z,5.38
2016-02-19T09:31:06.717Z,5.4
2016-02-19T09:32:06.720Z,5.44
2016-02-19T09:33:06.738Z,5.38
2016-02-19T09:34:06.726Z,5.43
2016-02-19T09:35:06.728Z,5.4
2016-02-19T09:36:06.731Z,5.55
2016-02-19T09:37:06.733Z,5.52
2016-02-19T09:38:06.721Z,5.51
2016-02-19T09:39:06.723Z,5.56
2016-02-19T09:40:06.725Z,5.65
2016-02-19T09:41:06.728Z,5.64
2016-02-19T09:42:06.731Z,5.76
2016-02-19T09:43:06.717Z,5.81
2016-02-19T09:44:06.721Z,5.87
2016-02-19T09:45:06.723Z,5.87
2016-02-19T09:46:06.725Z,5.8
2016-02-19T09:47:06.713Z,5.88
2016-02-19T09:48:06.716Z,5.77
2016-02-19T09:49:06.734Z,5.76
2016-02-19T09:50:06.736Z,5.62
2016-02-19T09:51:06.724Z,5.61
2016-02-19T09:52:06.727Z,5.61
2016-02-19T09:53:06.744Z,5.51
2016-02-19T09:54:06.717Z,5.49
2016-02-19T09:55:06.735Z,5.55
2016-02-19T09:56:06.721Z,5.61
2016-02-19T09:57:06.724Z,5.44
2016-02-19T09:58:06.727Z,5.64
2016-02-19T09:59:06.715Z,5.7
2016-02-19T10:00:06.732Z,5.72
2016-02-19T10:01:06.720Z,5.69
2016-02-19T10:02:06.707Z,5.74
2016-02-19T10:03:06.725Z,5.76
2016-02-19T10:04:06.728Z,5.79
2016-02-19T10:05:06.715Z,5.83
2016-02-19T10:06:06.717Z,5.79
2016-02-19T10:07:06.721Z,5.67
2016-02-19T10:08:06.707Z,5.67
2016-02-19T10:09:06.726Z,5.64
2016-02-19T10:10:06.728Z,5.67
2016-02-19T10:11:06.715Z,5.62
2016-02-19T10:12:06.717Z,5.64
2016-02-19T10:13:06.737Z,5.73
2016-02-19T10:14:06.723Z,5.65
2016-02-19T10:15:06.726Z,5.67
2016-02-19T10:16:06.728Z,5.65
2016-02-19T10:17:06.731Z,5.67
2016-02-19T10:18:06.719Z,5.65
2016-02-19T10:19:06.721Z,5.7
2016-02-19T10:20:06.724Z,5.73
2016-02-19T10:21:06.742Z,5.65
2016-02-19T10:22:06.729Z,5.69
2016-02-19T10:23:06.748Z,5.67
2016-02-19T10:24:06.735Z,5.65
2016-02-19T10:25:06.721Z,5.69
2016-02-19T10:26:06.725Z,5.65
2016-02-19T10:27:06.727Z,5.64
2016-02-19T10:28:06.730Z,5.56
2016-02-19T10:29:06.732Z,5.62
2016-02-19T10:30:06.735Z,5.64
2016-02-19T10:31:06.722Z,5.65
2016-02-19T10:32:06.725Z,5.64
2016-02-19T10:33:06.713Z,5.65
2016-02-19T10:34:06.715Z,5.67
2016-02-19T10:35:06.748Z,5.59
2016-02-19T10:36:06.735Z,5.73
2016-02-19T10:37:06.738Z,5.77
2016-02-19T10:38:06.725Z,5.77
2016-02-19T10:39:06.743Z,5.87
2016-02-19T10:40:06.731Z,5.77
2016-02-19T10:41:06.717Z,5.84
2016-02-19T10:42:06.721Z,5.91
2016-02-19T10:43:06.739Z,5.97
2016-02-19T10:44:06.725Z,6.07
2016-02-19T10:45:06.729Z,6.16
2016-02-19T10:46:06.731Z,6.26
2016-02-19T10:47:06.734Z,6.41
2016-02-19T10:48:06.721Z,6.53
2016-02-19T10:49:06.739Z,6.7
2016-02-19T10:50:06.727Z,6.85
2016-02-19T10:51:06.730Z,7.1
2016-02-19T10:52:06.748Z,7.15
2016-02-19T10:53:06.719Z,7.23
2016-02-19T10:54:06.722Z,7.31
2016-02-19T10:55:06.756Z,7.32
2016-02-19T10:56:06.743Z,7.39
2016-02-19T10:57:06.729Z,7.44
2016-02-19T10:58:06.732Z,7.43
2016-02-19T10:59:06.735Z,7.41
2016-02-19T11:00:06.722Z,7.48
2016-02-19T11:01:06.725Z,7.47
2016-02-19T11:02:06.727Z,7.37
2016-02-19T11:03:06.729Z,7.39
2016-02-19T11:04:06.718Z,7.36
2016-02-19T11:05:06.720Z,7.28
2016-02-19T11:06:06.722Z,7.1
2016-02-19T11:07:06.726Z,7.04
2016-02-19T11:08:06.728Z,6.93
2016-02-19T11:09:06.731Z,6.89
2016-02-19T11:10:06.734Z,6.96
2016-02-19T11:11:06.736Z,6.89
2016-02-19T11:12:06.723Z,6.95
2016-02-19T11:13:06.742Z,6.93
2016-02-19T11:14:06.728Z,6.83
2016-02-19T11:15:06.731Z,6.8
2016-02-19T11:16:06.750Z,6.75
2016-02-19T11:17:06.737Z,6.72
2016-02-19T11:18:06.723Z,6.71
2016-02-19T11:19:06.726Z,6.72
2016-02-19T11:20:06.745Z,6.71
2016-02-19T11:21:06.731Z,6.7
2016-02-19T11:22:06.734Z,6.71
2016-02-19T11:23:06.736Z,6.72
2016-02-19T11:24:06.755Z,6.77
2016-02-19T11:25:06.742Z,6.72
2016-02-19T11:26:06.730Z,6.75
2016-02-19T11:27:06.732Z,6.75
2016-02-19T11:28:06.735Z,6.74
2016-02-19T11:29:06.753Z,6.72
2016-02-19T11:30:06.755Z,6.64
2016-02-19T11:31:06.743Z,6.7
2016-02-19T11:32:06.730Z,6.7
2016-02-19T11:33:06.732Z,6.68
2016-02-19T11:34:06.735Z,6.74
2016-02-19T11:35:06.832Z,6.72
2016-02-19T11:36:06.740Z,6.72
2016-02-19T11:37:06.744Z,6.65
2016-02-19T11:38:06.746Z,6.64
2016-02-19T11:39:06.748Z,6.56
2016-02-19T11:40:06.752Z,6.57
2016-02-19T11:41:06.739Z,6.57
2016-02-19T11:42:06.741Z,6.5
2016-02-19T11:43:06.744Z,6.59
2016-02-19T11:44:06.747Z,6.52
2016-02-19T11:45:06.733Z,6.56
2016-02-19T11:46:06.737Z,6.65
2016-02-19T11:47:06.755Z,6.47
2016-02-19T11:48:06.741Z,6.5
2016-02-19T11:49:06.745Z,6.62
2016-02-19T11:50:06.747Z,6.6
2016-02-19T11:51:06.749Z,6.64
2016-02-19T11:52:06.736Z,6.64
2016-02-19T11:53:06.739Z,6.68
2016-02-19T11:54:06.742Z,6.7
2016-02-19T11:55:06.745Z,6.72
2016-02-19T11:56:06.747Z,6.64
2016-02-19T11:57:06.750Z,6.6
2016-02-19T11:58:06.753Z,6.6
2016-02-19T11:59:06.755Z,6.47
2016-02-19T12:00:06.743Z,6.54
2016-02-19T12:01:06.761Z,6.59
2016-02-19T12:02:06.748Z,6.67
2016-02-19T12:03:06.752Z,6.53
2016-02-19T12:04:06.754Z,6.49
2016-02-19T12:05:06.757Z,6.46
2016-02-19T12:06:06.744Z,6.49
2016-02-19T12:07:06.762Z,6.6
2016-02-19T12:08:06.733Z,6.67
2016-02-19T12:09:06.751Z,6.6
2016-02-19T12:10:06.754Z,6.64
2016-02-19T12:11:06.756Z,6.6
2016-02-19T12:12:06.760Z,6.59
2016-02-19T12:13:06.746Z,6.57
2016-02-19T12:14:06.748Z,6.62
2016-02-19T12:15:06.768Z,6.57
2016-02-19T12:16:06.754Z,6.6
2016-02-19T12:17:06.756Z,6.65
2016-02-19T12:18:06.760Z,6.72
2016-02-19T12:19:06.762Z,6.82
2016-02-19T12:20:06.765Z,6.9
2016-02-19T12:21:06.768Z,7.05
2016-02-19T12:22:06.755Z,7.23
2016-02-19T12:23:06.758Z,7.43
2016-02-19T12:24:06.604Z,7.66
2016-02-19T12:25:06.607Z,7.77
2016-02-19T12:26:06.749Z,8.02
2016-02-19T12:27:06.752Z,8.13
2016-02-19T12:28:06.755Z,8.21
2016-02-19T12:29:06.774Z,8.35
2016-02-19T12:30:06.761Z,8.31
2016-02-19T12:31:06.763Z,8.28
2016-02-19T12:32:06.766Z,8.38
2016-02-19T12:33:06.769Z,8.42
2016-02-19T12:34:06.771Z,8.59
2016-02-19T12:35:06.759Z,8.68
2016-02-19T12:36:06.746Z,8.74
2016-02-19T12:37:06.765Z,8.72
2016-02-19T12:38:06.767Z,8.74
2016-02-19T12:39:06.754Z,8.77
2016-02-19T12:40:06.788Z,8.66
2016-02-19T12:41:06.759Z,8.64
2016-02-19T12:42:06.761Z,8.53
2016-02-19T12:43:06.765Z,8.46
2016-02-19T12:44:06.767Z,8.35
2016-02-19T12:45:06.770Z,8.09
2016-02-19T12:46:06.757Z,8.03
2016-02-19T12:47:06.759Z,7.98
2016-02-19T12:48:06.778Z,7.8
2016-02-19T12:49:06.765Z,7.62
2016-02-19T12:50:06.767Z,7.58
2016-02-19T12:51:06.770Z,7.36
2016-02-19T12:52:06.773Z,7.39
2016-02-19T12:53:06.775Z,7.19
2016-02-19T12:54:06.764Z,7.11
2016-02-19T12:55:06.781Z,6.95
2016-02-19T12:56:06.768Z,6.8
2016-02-19T12:57:06.771Z,6.62
2016-02-19T12:58:06.774Z,6.53
2016-02-19T12:59:07.057Z,6.39
2016-02-19T13:00:06.780Z,6.29
2016-02-19T13:01:06.782Z,6.22
2016-02-19T13:02:06.628Z,6.22
2016-02-19T13:03:06.771Z,6.13
2016-02-19T13:04:06.774Z,6.09
2016-02-19T13:05:06.793Z,6.07
2016-02-19T13:06:06.779Z,6.1
2016-02-19T13:07:06.766Z,5.91
2016-02-19T13:08:06.785Z,5.98
2016-02-19T13:09:06.771Z,5.95
2016-02-19T13:10:06.775Z,5.79
2016-02-19T13:11:06.777Z,5.87
2016-02-19T13:12:06.779Z,5.81
2016-02-19T13:13:06.783Z,5.72
2016-02-19T13:14:06.785Z,5.69
2016-02-19T13:15:06.787Z,5.61
2016-02-19T13:16:06.791Z,5.65
2016-02-19T13:17:06.793Z,5.62
2016-02-19T13:18:06.781Z,5.58
2016-02-19T13:19:06.798Z,5.54
2016-02-19T13:20:06.630Z,5.36